»·PEaware :: N3298S KSAN-54CL

N3298S :: KSAN-54CL

FLIGHT INFORMATION

Flight Status: Arrived
Operator: Privately registered:
United States
More flights under this callsign
Pilot: Todd P. (5750)
Aircraft: CESSNA 172 SKYHAWK
(C172)
More flights by this aircraft type
Origin: KSAN San Diego Intl-Lindbergh
United States
Destination: 54CL Lake Riverside Estates
United States
More flights between these airports :: More routes between these airports
Route: +MZB JLI
File this flight plan on PilotEdge
Remarks:
Altitude:
(Current/Filed)
6,500ft
Speed:
(Current/Filed)
115kts
Departed: 19-Jan-15 08:09 PM
Arrived: 19-Jan-15 08:52 PM
Distance/Time
Traveled:
51nm/0:43
Distance/Time
To Go:
Arrived

Flight Plot

Page will automatically refresh every two minutes.

Flight plan parsing failed; only flown route is shown


Map Options




Map Legend


Flown Route
Filed Route
Departure Airport
Arrival Airport
Navaid (VOR, NDB)
Fix

Horizontal Profiles

Position Reports

Time Latitude Longitude Heading Altitude Ground
Speed
19-Jan-15 19:44 32.732390 -117.176700 194 21ft 0kts
19-Jan-15 19:45 32.732390 -117.176700 194 21ft 0kts
19-Jan-15 19:46 32.732390 -117.176700 194 21ft 0kts
19-Jan-15 19:47 32.732390 -117.176700 194 21ft 0kts
19-Jan-15 19:48 32.732390 -117.176700 194 21ft 0kts
19-Jan-15 19:49 32.732390 -117.176700 194 21ft 0kts
19-Jan-15 19:50 32.732390 -117.176700 194 21ft 0kts
19-Jan-15 19:51 32.732390 -117.176700 194 21ft 0kts
19-Jan-15 19:52 32.732390 -117.176700 194 21ft 0kts
19-Jan-15 19:53 32.732390 -117.176700 194 21ft 0kts
19-Jan-15 19:54 32.732390 -117.176700 194 21ft 0kts
19-Jan-15 19:55 32.732390 -117.176700 194 21ft 0kts
19-Jan-15 19:56 32.732390 -117.176700 194 21ft 0kts
19-Jan-15 19:57 32.732390 -117.176700 194 21ft 0kts
19-Jan-15 19:58 32.731657 -117.176610 182 21ft 5kts
19-Jan-15 19:59 32.730958 -117.175366 162 21ft 0kts
19-Jan-15 20:00 32.730958 -117.175366 162 21ft 0kts
19-Jan-15 20:01 32.730958 -117.175366 162 21ft 0kts
19-Jan-15 20:02 32.730124 -117.175643 303 21ft 0kts
19-Jan-15 20:03 32.730142 -117.175685 291 21ft 0kts
19-Jan-15 20:04 32.733721 -117.186703 283 211ft 69kts
19-Jan-15 20:05 32.742661 -117.209192 325 862ft 77kts
19-Jan-15 20:06 32.761806 -117.223350 326 1448ft 87kts
19-Jan-15 20:07 32.780739 -117.240389 318 1974ft 96kts
19-Jan-15 20:08 32.806902 -117.260256 331 1993ft 117kts
19-Jan-15 20:09 32.828818 -117.251709 87 1961ft 125kts
19-Jan-15 20:10 32.826965 -117.218107 103 2744ft 86kts
19-Jan-15 20:11 32.820846 -117.191282 97 3292ft 90kts
19-Jan-15 20:12 32.818608 -117.158925 91 3687ft 102kts
19-Jan-15 20:13 32.820428 -117.123976 84 3965ft 115kts
19-Jan-15 20:14 32.820983 -117.087564 93 4322ft 111kts
19-Jan-15 20:15 32.820258 -117.050161 86 4564ft 115kts
19-Jan-15 20:16 32.821360 -117.010819 88 4682ft 122kts
19-Jan-15 20:17 32.822083 -116.969332 89 4572ft 130kts
19-Jan-15 20:18 32.821953 -116.927426 85 4557ft 126kts
19-Jan-15 20:19 32.827793 -116.887926 72 4698ft 119kts
19-Jan-15 20:20 32.840226 -116.850979 50 4783ft 116kts
19-Jan-15 20:21 32.862658 -116.825392 37 5116ft 112kts
19-Jan-15 20:22 32.889424 -116.806872 21 5363ft 111kts
19-Jan-15 20:23 32.919086 -116.795522 19 5556ft 112kts
19-Jan-15 20:24 32.947259 -116.779375 41 5743ft 113kts
19-Jan-15 20:25 32.970002 -116.753661 46 6002ft 109kts
19-Jan-15 20:26 32.991905 -116.729454 40 6337ft 107kts
19-Jan-15 20:27 33.015437 -116.706356 35 6578ft 110kts
19-Jan-15 20:28 33.045374 -116.697330 356 6664ft 115kts
19-Jan-15 20:29 33.077979 -116.701584 353 6503ft 123kts
19-Jan-15 20:30 33.110971 -116.707621 346 6455ft 117kts
19-Jan-15 20:31 33.143043 -116.712387 349 6447ft 116kts
19-Jan-15 20:32 33.175684 -116.718165 356 6260ft 123kts
19-Jan-15 20:33 33.208213 -116.714815 12 6135ft 120kts
19-Jan-15 20:34 33.241065 -116.705976 10 5983ft 121kts
19-Jan-15 20:35 33.274398 -116.700038 10 5843ft 121kts
19-Jan-15 20:36 33.307253 -116.702494 331 5694ft 121kts
19-Jan-15 20:37 33.334613 -116.725598 323 5565ft 120kts
19-Jan-15 20:38 33.360540 -116.751121 317 5440ft 120kts
19-Jan-15 20:39 33.382077 -116.781581 313 5313ft 120kts
19-Jan-15 20:40 33.403908 -116.811865 308 5223ft 120kts
19-Jan-15 20:41 33.429644 -116.834665 347 5001ft 117kts
19-Jan-15 20:42 33.460099 -116.840152 7 4576ft 108kts
19-Jan-15 20:43 33.485122 -116.830361 22 4487ft 84kts
19-Jan-15 20:44 33.504805 -116.814558 67 4330ft 82kts
19-Jan-15 20:45 33.497613 -116.790150 61 4255ft 69kts
19-Jan-15 20:46 33.514714 -116.784702 331 3922ft 74kts
19-Jan-15 20:47 33.522596 -116.801401 304 3414ft 8kts

Navigation Log

Ident Type
Flight plan parsing failed, navigation log unavailable